createdAt,value
2022-08-02T00:00:37.516Z,21.91
2022-08-02T00:03:04.512Z,22.01
2022-08-02T00:05:31.599Z,21.94
2022-08-02T00:07:58.556Z,21.93
2022-08-02T00:10:25.708Z,21.91
2022-08-02T00:12:53.204Z,21.96
2022-08-02T00:15:20.471Z,21.94
2022-08-02T00:17:48.600Z,21.86
2022-08-02T00:20:16.323Z,21.81
2022-08-02T00:22:43.367Z,21.74
2022-08-02T00:25:10.412Z,21.83
2022-08-02T00:27:37.473Z,21.72
2022-08-02T00:30:05.425Z,21.65
2022-08-02T00:32:32.440Z,21.72
2022-08-02T00:34:59.429Z,21.66
2022-08-02T00:37:26.447Z,21.64
2022-08-02T00:39:53.436Z,21.66
2022-08-02T00:42:20.477Z,21.63
2022-08-02T00:44:47.536Z,21.60
2022-08-02T00:47:19.574Z,21.58
2022-08-02T00:49:47.632Z,21.49
2022-08-02T00:52:14.974Z,21.43
2022-08-02T00:54:42.134Z,21.42
2022-08-02T00:57:09.330Z,21.38
2022-08-02T00:59:36.414Z,21.34
2022-08-02T01:02:03.483Z,21.39
2022-08-02T01:04:32.162Z,21.42
2022-08-02T01:07:00.989Z,21.47
2022-08-02T01:09:28.551Z,21.40
2022-08-02T01:11:55.958Z,21.35
2022-08-02T01:14:25.225Z,21.38
2022-08-02T01:17:38.919Z,21.30
2022-08-02T01:20:21.223Z,21.44
2022-08-02T01:23:21.969Z,21.35
2022-08-02T01:26:19.704Z,21.34
2022-08-02T01:29:29.548Z,21.27
2022-08-02T01:32:06.980Z,21.28
2022-08-02T01:34:54.228Z,21.22
2022-08-02T01:37:48.511Z,21.23
2022-08-02T01:40:23.788Z,21.31
2022-08-02T01:42:55.447Z,21.30
2022-08-02T01:45:26.914Z,21.11
2022-08-02T01:47:55.609Z,21.23
2022-08-02T01:50:33.600Z,21.06
2022-08-02T01:53:07.705Z,21.16
2022-08-02T01:55:57.820Z,20.98
2022-08-02T01:58:31.044Z,20.93
2022-08-02T02:00:59.842Z,21.06
2022-08-02T02:03:29.143Z,21.21
2022-08-02T02:05:58.657Z,21.21
2022-08-02T02:08:31.412Z,21.20
2022-08-02T02:12:09.766Z,21.26
2022-08-02T02:13:49.887Z,21.07
2022-08-02T02:16:19.391Z,21.07
2022-08-02T02:18:49.059Z,20.96
2022-08-02T02:21:16.650Z,20.98
2022-08-02T02:23:43.984Z,21.00
2022-08-02T02:26:16.859Z,20.99
2022-08-02T02:28:48.695Z,20.85
2022-08-02T02:31:19.401Z,20.90
2022-08-02T02:34:14.240Z,21.02
2022-08-02T02:36:46.313Z,21.01
2022-08-02T02:39:15.906Z,20.96
2022-08-02T02:41:44.364Z,20.83
2022-08-02T02:44:16.386Z,20.79
2022-08-02T02:46:45.024Z,20.80
2022-08-02T02:49:13.364Z,20.85
2022-08-02T02:51:41.967Z,20.84
2022-08-02T02:54:30.519Z,20.57
2022-08-02T02:57:02.646Z,20.43
2022-08-02T02:59:30.345Z,20.45
2022-08-02T03:01:58.870Z,20.31
2022-08-02T03:04:55.753Z,20.39
2022-08-02T03:07:17.446Z,20.32
2022-08-02T03:09:44.594Z,20.41
2022-08-02T03:12:14.813Z,20.26
2022-08-02T03:14:49.431Z,20.36
2022-08-02T03:17:16.778Z,20.41
2022-08-02T03:19:45.282Z,20.36
2022-08-02T03:22:12.682Z,20.32
2022-08-02T03:24:40.026Z,20.31
2022-08-02T03:27:07.017Z,20.30
2022-08-02T03:29:34.798Z,20.44
2022-08-02T03:32:02.362Z,20.52
2022-08-02T03:34:29.713Z,20.58
2022-08-02T03:36:58.682Z,20.84
2022-08-02T03:39:27.174Z,21.46
2022-08-02T03:41:55.723Z,22.40
2022-08-02T03:44:24.333Z,22.97
2022-08-02T03:46:52.440Z,23.76
2022-08-02T03:49:20.654Z,24.44
2022-08-02T03:51:48.663Z,24.95
2022-08-02T03:54:17.901Z,25.58
2022-08-02T03:56:45.411Z,25.35
2022-08-02T03:59:15.059Z,25.60
2022-08-02T04:01:42.618Z,26.69
2022-08-02T04:04:09.933Z,26.91
2022-08-02T04:06:39.910Z,26.78
2022-08-02T04:09:09.966Z,27.55
2022-08-02T04:11:37.982Z,28.08
2022-08-02T04:14:11.367Z,29.13
2022-08-02T04:16:43.461Z,29.87
2022-08-02T04:19:16.923Z,30.56
2022-08-02T04:21:50.414Z,31.58
2022-08-02T04:24:27.922Z,31.85
2022-08-02T04:27:06.782Z,31.09
2022-08-02T04:29:49.124Z,31.52
2022-08-02T04:32:17.494Z,31.95
2022-08-02T04:35:11.336Z,33.32
2022-08-02T04:37:34.759Z,32.90
2022-08-02T04:40:01.777Z,34.18
2022-08-02T04:42:28.815Z,34.13
2022-08-02T04:44:56.129Z,35.21
2022-08-02T04:47:54.088Z,36.09
2022-08-02T04:50:10.471Z,36.31
2022-08-02T04:52:37.511Z,36.37
2022-08-02T04:55:04.959Z,36.47
2022-08-02T04:57:52.555Z,35.74
2022-08-02T05:00:20.660Z,34.16
2022-08-02T05:02:48.776Z,34.66
2022-08-02T05:05:16.407Z,36.87
2022-08-02T05:07:43.391Z,37.96
2022-08-02T05:10:11.645Z,37.72
2022-08-02T05:12:39.519Z,38.91
2022-08-02T05:15:12.481Z,39.88
2022-08-02T05:17:47.724Z,40.27
2022-08-02T05:20:17.894Z,40.24
2022-08-02T05:22:45.935Z,40.17
2022-08-02T05:25:13.130Z,40.91
2022-08-02T05:27:40.527Z,41.54
2022-08-02T05:30:08.483Z,42.78
2022-08-02T05:32:44.485Z,42.14
2022-08-02T05:35:11.965Z,41.25
2022-08-02T05:37:43.158Z,42.24
2022-08-02T05:40:13.175Z,42.59
2022-08-02T05:42:41.241Z,42.77
2022-08-02T05:45:09.272Z,41.48
2022-08-02T05:47:36.520Z,39.27
2022-08-02T05:50:06.384Z,37.61
2022-08-02T05:52:56.860Z,39.19
2022-08-02T05:55:33.593Z,40.36
2022-08-02T05:58:13.540Z,39.86
2022-08-02T06:00:45.182Z,38.00
2022-08-02T06:03:31.992Z,36.82
2022-08-02T06:06:11.229Z,39.04
2022-08-02T06:08:47.818Z,39.71
2022-08-02T06:11:21.942Z,38.78
2022-08-02T06:13:49.430Z,38.50
2022-08-02T06:16:16.506Z,39.72
2022-08-02T06:18:46.424Z,40.98
2022-08-02T06:22:33.202Z,41.95
2022-08-02T06:24:04.029Z,42.26
2022-08-02T06:26:32.354Z,42.29
2022-08-02T06:28:59.557Z,43.22
2022-08-02T06:31:26.713Z,42.07
2022-08-02T06:33:53.714Z,42.46
2022-08-02T06:36:47.630Z,42.57
2022-08-02T06:39:25.810Z,43.18
2022-08-02T06:41:58.477Z,42.60
2022-08-02T06:44:48.560Z,41.90
2022-08-02T06:47:13.621Z,40.89
2022-08-02T06:49:51.714Z,39.68
2022-08-02T06:52:30.993Z,39.57
2022-08-02T06:55:04.649Z,39.96
2022-08-02T06:57:33.383Z,40.15
2022-08-02T07:00:07.205Z,40.66
2022-08-02T07:02:39.751Z,43.90
2022-08-02T07:05:07.580Z,43.22
2022-08-02T07:07:34.902Z,43.13
2022-08-02T07:10:02.156Z,43.69
2022-08-02T07:12:31.577Z,43.20
2022-08-02T07:15:00.857Z,43.38
2022-08-02T07:17:28.772Z,43.42
2022-08-02T07:19:56.496Z,43.83
2022-08-02T07:22:24.537Z,42.64
2022-08-02T07:24:52.823Z,40.93
2022-08-02T07:27:21.480Z,41.68
2022-08-02T07:29:48.538Z,42.57
2022-08-02T07:32:21.237Z,41.90
2022-08-02T07:34:51.072Z,41.25
2022-08-02T07:37:53.051Z,41.19
2022-08-02T07:40:20.616Z,40.57
2022-08-02T07:42:57.764Z,40.12
2022-08-02T07:45:27.843Z,40.42
2022-08-02T07:47:56.902Z,41.50
2022-08-02T07:50:24.499Z,40.86
2022-08-02T07:52:57.135Z,39.31
2022-08-02T07:55:39.330Z,38.22
2022-08-02T07:58:12.419Z,38.63
2022-08-02T08:00:43.452Z,38.53
2022-08-02T08:03:10.694Z,38.05
2022-08-02T08:05:37.683Z,37.79
2022-08-02T08:08:06.107Z,37.81
2022-08-02T08:10:33.310Z,37.24
2022-08-02T08:13:00.475Z,37.67
2022-08-02T08:15:27.449Z,37.12
2022-08-02T08:17:54.473Z,36.83
2022-08-02T08:20:21.532Z,37.45
2022-08-02T08:22:50.229Z,37.88
2022-08-02T08:25:17.251Z,38.98
2022-08-02T08:27:53.613Z,38.55
2022-08-02T08:30:22.471Z,38.13
2022-08-02T08:32:52.051Z,38.79
2022-08-02T08:35:19.199Z,39.09
2022-08-02T08:37:46.158Z,38.63
2022-08-02T08:40:19.614Z,38.29
2022-08-02T08:42:46.925Z,38.26
2022-08-02T08:45:13.920Z,38.52
2022-08-02T08:47:42.743Z,38.68
2022-08-02T08:50:25.374Z,39.43
2022-08-02T08:53:03.918Z,37.97
2022-08-02T08:55:33.389Z,37.23
2022-08-02T08:58:02.345Z,37.23
2022-08-02T09:00:32.631Z,37.60
2022-08-02T09:03:02.574Z,37.19
2022-08-02T09:05:29.646Z,36.69
2022-08-02T09:07:56.658Z,37.20
2022-08-02T09:10:44.407Z,37.11
2022-08-02T09:13:38.625Z,37.79
2022-08-02T09:16:14.719Z,37.36
2022-08-02T09:18:46.728Z,36.69
2022-08-02T09:21:16.652Z,36.03
2022-08-02T09:23:47.196Z,36.67
2022-08-02T09:26:20.646Z,35.71
2022-08-02T09:28:51.654Z,35.63
2022-08-02T09:31:23.857Z,36.04
2022-08-02T09:34:00.889Z,36.28
2022-08-02T09:36:42.425Z,35.76
2022-08-02T09:39:12.884Z,35.65
2022-08-02T09:41:44.269Z,35.68
2022-08-02T09:44:16.188Z,35.46
2022-08-02T09:46:46.954Z,35.81
2022-08-02T09:49:16.967Z,36.32
2022-08-02T09:51:46.827Z,36.15
2022-08-02T09:54:26.092Z,36.69
2022-08-02T09:56:56.948Z,36.47
2022-08-02T09:59:25.651Z,36.16
2022-08-02T10:02:01.617Z,35.49
2022-08-02T10:04:33.895Z,35.73
2022-08-02T10:07:04.295Z,36.00
2022-08-02T10:09:32.415Z,35.09
2022-08-02T10:12:01.691Z,34.84
2022-08-02T10:14:30.838Z,34.38
2022-08-02T10:16:58.851Z,34.33
2022-08-02T10:20:02.938Z,34.97
2022-08-02T10:22:19.427Z,35.06
2022-08-02T10:24:48.664Z,34.87
2022-08-02T10:27:22.416Z,34.89
2022-08-02T10:29:55.351Z,35.03
2022-08-02T10:32:41.994Z,34.97
2022-08-02T10:35:20.154Z,34.84
2022-08-02T10:38:01.338Z,34.95
2022-08-02T10:40:52.885Z,35.07
2022-08-02T10:43:31.847Z,34.65
2022-08-02T10:46:34.283Z,33.75
2022-08-02T10:52:03.034Z,33.64
2022-08-02T10:54:38.729Z,33.42
2022-08-02T10:57:36.429Z,33.11
2022-08-02T11:00:24.472Z,32.66
2022-08-02T11:02:52.915Z,32.68
2022-08-02T11:05:42.697Z,32.99
2022-08-02T11:08:22.267Z,32.81
2022-08-02T11:10:49.383Z,32.86
2022-08-02T11:13:19.739Z,32.99
2022-08-02T11:16:10.694Z,32.65
2022-08-02T11:18:44.913Z,32.85
2022-08-02T11:21:29.943Z,32.99
2022-08-02T11:24:17.212Z,32.91
2022-08-02T11:26:45.488Z,32.83
2022-08-02T11:29:15.416Z,32.89
2022-08-02T11:31:45.578Z,32.57
2022-08-02T11:34:37.093Z,32.86
2022-08-02T11:37:00.459Z,32.77
2022-08-02T11:39:27.564Z,32.89
2022-08-02T11:41:58.853Z,32.63
2022-08-02T11:44:39.097Z,32.65
2022-08-02T11:47:07.175Z,32.14
2022-08-02T11:49:34.240Z,32.60
2022-08-02T11:52:05.628Z,32.56
2022-08-02T11:54:36.791Z,32.40
2022-08-02T11:57:20.150Z,32.39
2022-08-02T11:59:52.106Z,32.72
2022-08-02T12:02:21.956Z,32.41
2022-08-02T12:05:00.383Z,31.93
2022-08-02T12:07:34.929Z,31.84
2022-08-02T12:10:19.353Z,31.57
2022-08-02T12:12:50.028Z,31.64
2022-08-02T12:15:44.885Z,31.71
2022-08-02T12:18:39.410Z,31.85
2022-08-02T12:21:24.715Z,32.23
2022-08-02T12:24:00.081Z,32.20
2022-08-02T12:26:29.422Z,32.21
2022-08-02T12:28:58.741Z,32.11
2022-08-02T12:31:56.084Z,31.96
2022-08-02T12:34:29.989Z,31.79
2022-08-02T12:37:09.578Z,31.67
2022-08-02T12:39:43.479Z,31.29
2022-08-02T12:42:14.994Z,31.35
2022-08-02T12:45:00.943Z,31.75
2022-08-02T12:47:35.603Z,32.07
2022-08-02T12:50:43.397Z,31.66
2022-08-02T12:53:17.146Z,31.64
2022-08-02T12:56:01.426Z,31.62
2022-08-02T12:58:31.943Z,31.84
2022-08-02T13:01:01.091Z,31.98
2022-08-02T13:04:11.415Z,31.71
2022-08-02T13:06:42.209Z,31.15
2022-08-02T13:09:14.406Z,31.17
2022-08-02T13:11:43.060Z,31.48
2022-08-02T13:14:12.380Z,31.01
2022-08-02T13:16:40.363Z,31.03
2022-08-02T13:19:07.362Z,30.87
2022-08-02T13:21:41.656Z,30.86
2022-08-02T13:24:37.988Z,30.93
2022-08-02T13:27:08.034Z,30.94
2022-08-02T13:29:40.354Z,30.60
2022-08-02T13:32:07.414Z,30.88
2022-08-02T13:34:34.804Z,31.18
2022-08-02T13:37:02.330Z,31.44
2022-08-02T13:39:29.433Z,31.13
2022-08-02T13:41:56.643Z,30.93
2022-08-02T13:44:23.662Z,30.55
2022-08-02T13:46:50.640Z,30.50
2022-08-02T13:49:19.802Z,30.45
2022-08-02T13:51:48.284Z,30.36
2022-08-02T13:54:17.011Z,30.18
2022-08-02T13:56:44.110Z,30.19
2022-08-02T13:59:53.499Z,30.30
2022-08-02T14:01:58.971Z,30.35
2022-08-02T14:04:27.125Z,30.52
2022-08-02T14:06:54.216Z,30.51
2022-08-02T14:09:21.478Z,30.61
2022-08-02T14:11:49.141Z,30.24
2022-08-02T14:14:17.489Z,30.23
2022-08-02T14:16:47.554Z,30.34
2022-08-02T14:19:16.519Z,30.24
2022-08-02T14:21:46.840Z,30.47
2022-08-02T14:24:19.752Z,30.64
2022-08-02T14:26:48.444Z,30.84
2022-08-02T14:29:17.037Z,30.56
2022-08-02T14:31:45.099Z,30.37
2022-08-02T14:34:13.891Z,30.25
2022-08-02T14:36:41.395Z,30.05
2022-08-02T14:39:08.448Z,30.00
2022-08-02T14:42:00.017Z,29.82
2022-08-02T14:44:24.083Z,29.74
2022-08-02T14:46:51.681Z,29.80
2022-08-02T14:49:25.845Z,29.38
2022-08-02T14:51:57.325Z,29.45
2022-08-02T14:54:30.692Z,29.47
2022-08-02T14:57:03.713Z,29.44
2022-08-02T14:59:31.127Z,29.69
2022-08-02T15:01:59.585Z,29.63
2022-08-02T15:04:26.987Z,29.62
2022-08-02T15:06:54.817Z,29.85
2022-08-02T15:09:22.198Z,29.72
2022-08-02T15:11:49.864Z,29.60
2022-08-02T15:14:21.871Z,29.81
2022-08-02T15:16:58.706Z,30.00
2022-08-02T15:19:44.947Z,30.09
2022-08-02T15:22:16.631Z,30.15
2022-08-02T15:24:46.008Z,30.16
2022-08-02T15:27:14.390Z,30.24
2022-08-02T15:29:46.504Z,30.29
2022-08-02T15:32:17.202Z,30.33
2022-08-02T15:34:44.789Z,30.23
2022-08-02T15:37:12.011Z,30.20
2022-08-02T15:39:39.180Z,29.84
2022-08-02T15:42:06.284Z,29.62
2022-08-02T15:44:33.328Z,29.74
2022-08-02T15:47:00.281Z,29.91
2022-08-02T15:49:27.346Z,29.89
2022-08-02T15:51:54.986Z,29.78
2022-08-02T15:54:22.241Z,29.64
2022-08-02T15:56:50.087Z,29.74
2022-08-02T15:59:18.383Z,29.59
2022-08-02T16:01:48.127Z,29.56
2022-08-02T16:04:16.423Z,29.62
2022-08-02T16:06:44.400Z,29.50
2022-08-02T16:09:12.798Z,29.48
2022-08-02T16:11:42.442Z,29.27
2022-08-02T16:14:09.660Z,29.18
2022-08-02T16:16:37.289Z,29.23
2022-08-02T16:19:47.328Z,29.19
2022-08-02T16:21:54.074Z,29.11
2022-08-02T16:24:21.380Z,29.11
2022-08-02T16:26:48.397Z,29.10
2022-08-02T16:29:18.981Z,29.15
2022-08-02T16:31:47.803Z,29.03
2022-08-02T16:34:15.617Z,28.96
2022-08-02T16:36:42.815Z,28.82
2022-08-02T16:39:09.854Z,28.74
2022-08-02T16:41:51.337Z,28.66
2022-08-02T16:44:29.412Z,28.43
2022-08-02T16:47:12.172Z,28.34
2022-08-02T16:50:05.297Z,28.32
2022-08-02T16:52:27.572Z,28.33
2022-08-02T16:54:54.549Z,28.23
2022-08-02T16:57:21.532Z,28.08
2022-08-02T16:59:57.645Z,28.06
2022-08-02T17:02:26.384Z,28.08
2022-08-02T17:04:53.366Z,27.96
2022-08-02T17:08:07.670Z,27.87
2022-08-02T17:10:09.294Z,27.95
2022-08-02T17:12:37.613Z,27.96
2022-08-02T17:16:08.587Z,27.96
2022-08-02T17:17:54.159Z,27.71
2022-08-02T17:20:22.016Z,27.72
2022-08-02T17:22:51.786Z,27.53
2022-08-02T17:25:20.123Z,27.67
2022-08-02T17:27:48.391Z,27.60
2022-08-02T17:30:26.435Z,27.35
2022-08-02T17:32:57.732Z,27.38
2022-08-02T17:35:43.459Z,27.45
2022-08-02T17:38:17.871Z,27.40
2022-08-02T17:40:53.082Z,27.39
2022-08-02T17:43:20.074Z,27.31
2022-08-02T17:46:00.580Z,27.31
2022-08-02T17:48:59.096Z,27.30
2022-08-02T17:52:15.733Z,27.17
2022-08-02T17:54:14.350Z,27.10
2022-08-02T17:56:48.014Z,26.93
2022-08-02T17:59:30.895Z,26.94
2022-08-02T18:02:09.093Z,26.95
2022-08-02T18:04:38.534Z,26.92
2022-08-02T18:07:09.915Z,26.84
2022-08-02T18:09:39.522Z,26.73
2022-08-02T18:12:14.435Z,26.57
2022-08-02T18:14:46.019Z,26.47
2022-08-02T18:17:16.709Z,26.50
2022-08-02T18:19:56.393Z,26.45
2022-08-02T18:22:27.692Z,26.33
2022-08-02T18:24:54.911Z,26.33
2022-08-02T18:27:22.205Z,26.30
2022-08-02T18:30:00.347Z,26.22
2022-08-02T18:33:58.192Z,26.06
2022-08-02T18:35:20.093Z,26.07
2022-08-02T18:37:52.147Z,26.00
2022-08-02T18:40:24.559Z,25.99
2022-08-02T18:42:51.506Z,25.84
2022-08-02T18:45:20.275Z,25.71
2022-08-02T18:47:51.129Z,25.70
2022-08-02T18:50:19.912Z,25.66
2022-08-02T18:52:48.083Z,25.64
2022-08-02T18:55:17.394Z,25.51
2022-08-02T18:58:19.475Z,25.40
2022-08-02T19:00:51.495Z,25.43
2022-08-02T19:03:19.330Z,25.33
2022-08-02T19:05:52.169Z,25.29
2022-08-02T19:08:25.422Z,25.23
2022-08-02T19:10:56.188Z,25.18
2022-08-02T19:13:24.454Z,25.10
2022-08-02T19:15:53.041Z,25.00
2022-08-02T19:18:27.015Z,24.95
2022-08-02T19:21:03.262Z,24.91
2022-08-02T19:23:33.000Z,24.75
2022-08-02T19:26:00.425Z,24.78
2022-08-02T19:28:27.894Z,24.73
2022-08-02T19:30:56.351Z,24.62
2022-08-02T19:33:25.004Z,24.59
2022-08-02T19:36:11.865Z,24.54
2022-08-02T19:38:43.738Z,24.50
2022-08-02T19:41:13.203Z,24.41
2022-08-02T19:44:25.452Z,24.38
2022-08-02T19:46:27.248Z,24.37
2022-08-02T19:48:54.259Z,24.22
2022-08-02T19:51:49.583Z,24.27
2022-08-02T19:54:10.871Z,24.11
2022-08-02T19:56:37.977Z,24.09
2022-08-02T19:59:13.366Z,24.13
2022-08-02T20:01:46.443Z,24.16
2022-08-02T20:04:22.845Z,24.18
2022-08-02T20:06:50.814Z,24.11
2022-08-02T20:09:21.196Z,24.09
2022-08-02T20:11:54.334Z,23.83
2022-08-02T20:14:27.282Z,23.84
2022-08-02T20:16:56.928Z,23.74
2022-08-02T20:19:24.482Z,23.69
2022-08-02T20:21:55.497Z,23.75
2022-08-02T20:24:26.522Z,23.68
2022-08-02T20:26:53.973Z,23.63
2022-08-02T20:32:08.059Z,23.47
2022-08-02T20:34:36.380Z,23.40
2022-08-02T20:37:59.224Z,23.51
2022-08-02T20:39:52.491Z,23.50
2022-08-02T20:42:23.264Z,23.40
2022-08-02T20:44:55.564Z,23.40
2022-08-02T20:47:36.742Z,23.34
2022-08-02T20:50:31.635Z,23.13
2022-08-02T20:53:04.083Z,23.17
2022-08-02T20:55:32.200Z,23.07
2022-08-02T20:58:03.071Z,23.09
2022-08-02T21:00:31.891Z,23.08
2022-08-02T21:03:04.329Z,23.06
2022-08-02T21:05:54.196Z,23.05
2022-08-02T21:08:21.373Z,22.86
2022-08-02T21:10:52.348Z,22.90
2022-08-02T21:13:22.890Z,22.93
2022-08-02T21:15:52.005Z,22.87
2022-08-02T21:18:23.384Z,22.74
2022-08-02T21:21:00.403Z,22.78
2022-08-02T21:23:29.346Z,22.76
2022-08-02T21:25:58.035Z,22.76
2022-08-02T21:28:43.231Z,22.62
2022-08-02T21:31:12.388Z,22.48
2022-08-02T21:33:56.777Z,22.47
2022-08-02T21:36:31.194Z,22.48
2022-08-02T21:39:08.787Z,22.40
2022-08-02T21:44:26.074Z,22.48
2022-08-02T21:46:56.376Z,22.39
2022-08-02T21:49:40.523Z,22.29
2022-08-02T21:52:13.058Z,22.32
2022-08-02T21:54:40.994Z,22.27
2022-08-02T21:57:16.322Z,22.23
2022-08-02T21:59:47.812Z,22.27
2022-08-02T22:02:22.034Z,22.24
2022-08-02T22:04:58.050Z,22.17
2022-08-02T22:07:25.227Z,22.16
2022-08-02T22:09:53.242Z,22.12
2022-08-02T22:12:21.951Z,22.12
2022-08-02T22:14:55.772Z,22.07
2022-08-02T22:17:51.123Z,21.97
2022-08-02T22:20:20.270Z,21.78
2022-08-02T22:22:50.988Z,21.85
2022-08-02T22:25:26.599Z,21.85
2022-08-02T22:28:36.358Z,21.83
2022-08-02T22:30:58.283Z,21.86
2022-08-02T22:33:47.114Z,21.78
2022-08-02T22:36:32.046Z,21.72
2022-08-02T22:39:00.216Z,21.66
2022-08-02T22:42:05.302Z,21.60
2022-08-02T22:44:14.786Z,21.56
2022-08-02T22:46:43.859Z,21.64
2022-08-02T22:49:37.094Z,21.47
2022-08-02T22:51:57.958Z,21.45
2022-08-02T22:54:25.074Z,21.35
2022-08-02T22:56:52.097Z,21.35
2022-08-02T22:58:55.568Z,23.54
2022-08-02T22:59:10.954Z,22.30
2022-08-02T22:59:20.123Z,21.36
2022-08-02T23:02:05.626Z,21.37
2022-08-02T23:04:32.787Z,21.38
2022-08-02T23:06:59.780Z,21.37
2022-08-02T23:09:26.817Z,21.33
2022-08-02T23:11:53.997Z,21.29
2022-08-02T23:14:21.133Z,21.23
2022-08-02T23:17:07.463Z,21.21
2022-08-02T23:19:53.030Z,21.15
2022-08-02T23:22:30.015Z,21.06
2022-08-02T23:25:01.196Z,21.08
2022-08-02T23:27:30.088Z,20.97
2022-08-02T23:29:57.254Z,20.80
2022-08-02T23:32:25.782Z,20.66
2022-08-02T23:34:56.902Z,20.76
2022-08-02T23:37:24.206Z,20.86
2022-08-02T23:39:51.478Z,20.75
2022-08-02T23:42:18.898Z,20.81
2022-08-02T23:44:46.070Z,20.73
2022-08-02T23:47:13.120Z,20.88
2022-08-02T23:49:40.141Z,20.89
2022-08-02T23:52:07.230Z,20.87
2022-08-02T23:54:34.316Z,20.80
2022-08-02T23:57:19.660Z,20.80
2022-08-02T23:59:49.066Z,20.63
